Pink Gin — MAYP5 — position and weather

sailwx.info

Track history (hours):
 
Tides and Currents Weather Stations Pressure Air Temp Water Temp Dewpoint Dewpoint Depression Visibility Wind Speed Wind Dir Waves Ship Positions

Pink Gin

Last reported at 2018-Jun-18 03:26 UTC. Time now 2018-Jun-18 03:33 UTC.
Position N 54°27' E 012°02'.

Length 55 m; draft 7 m.

Type: Pleasure craft. MMSI: 232007762.

Date/timePositionNaut miles runAvg speedWind from/ knotsBaromVisibWave heightAir tempDewpointWater temp
2018-Jun-18 03:26N 54°27' E 012°02'42 7.5
2018-Jun-17 21:52N 55°02' E 012°41'3 8.8
2018-Jun-17 21:31N 55°05' E 012°40'5 9.1
2018-Jun-17 21:00N 55°10' E 012°39'510.0
2018-Jun-17 20:30N 55°15' E 012°38'510.0
2018-Jun-17 20:00N 55°20' E 012°38'5 9.9
2018-Jun-17 19:30N 55°25' E 012°39'5 9.8
2018-Jun-17 19:00N 55°29' E 012°41'5 9.6
2018-Jun-17 18:31N 55°34' E 012°42'510.0
2018-Jun-17 18:00N 55°39' E 012°42'510.4
2018-Jun-17 17:31N 55°44' E 012°41'5 9.8
2018-Jun-17 17:00N 55°49' E 012°41'510.3
2018-Jun-17 16:30N 55°54' E 012°38'510.0
2018-Jun-17 16:01N 55°59' E 012°38'4 8.9
2018-Jun-17 15:31N 56°04' E 012°38'80 7.7
2018-Jun-17 05:03N 57°15' E 011°33'1 9.4
2018-Jun-17 04:57N 57°16' E 011°32'4 9.5
2018-Jun-17 04:30N 57°20' E 011°29'5 9.1
2018-Jun-17 04:00N 57°24' E 011°27'510.1
2018-Jun-17 03:30N 57°29' E 011°23'4 8.9
2018-Jun-17 03:00N 57°33' E 011°20'4 8.6
2018-Jun-17 02:30N 57°37' E 011°17'4 8.5
2018-Jun-17 02:00N 57°41' E 011°15'4 8.4
2018-Jun-17 01:30N 57°46' E 011°14'5 9.0
2018-Jun-17 00:56N 57°50' E 011°09'185 9.1
2018-Jun-16 04:35N 55°58' E 006°40'212.2
2018-Jun-16 04:27N 55°56' E 006°40'612.1
2018-Jun-16 03:59N 55°50' E 006°40'10211.3
2018-Jun-15 19:01N 54°14' E 007°33'012.2
2018-Jun-15 19:00N 54°13' E 007°33'712.4
2018-Jun-15 18:26N 54°09' E 007°43'912.9
2018-Jun-15 17:46N 54°05' E 007°56'513.2
2018-Jun-15 17:23N 54°02' E 008°03'913.9
2018-Jun-15 16:43N 54°01' E 008°18'414.3
2018-Jun-15 16:28N 53°60' E 008°24'815.2
2018-Jun-15 15:57N 53°58' E 008°37'614.7
2018-Jun-15 15:30N 53°52' E 008°44'612.3
2018-Jun-15 15:00N 53°51' E 008°54'511.2
2018-Jun-15 14:30N 53°52' E 009°03'510.3
2018-Jun-15 14:00N 53°53' E 009°11'5 9.7
2018-Jun-15 13:30N 53°51' E 009°19'5 9.5
2018-Jun-15 13:00N 53°47' E 009°23'5 9.2
2018-Jun-15 12:30N 53°43' E 009°28'5 9.0
2018-Jun-15 12:00N 53°39' E 009°31'4 8.9
2018-Jun-15 11:30N 53°36' E 009°36'5 9.4
2018-Jun-15 11:00N 53°34' E 009°43'3 6.3
2018-Jun-15 10:29N 53°33' E 009°48'0 0.0
2018-Jun-15 09:59N 53°33' E 009°48'0 0.0
2018-Jun-15 09:29N 53°33' E 009°48'0 0.0
2018-Jun-15 08:59N 53°33' E 009°48'0 0.0
2018-Jun-15 08:29N 53°33' E 009°48'0 0.0
2018-Jun-15 07:59N 53°33' E 009°48'0 0.0
2018-Jun-15 07:29N 53°33' E 009°48'0 0.0
2018-Jun-15 06:59N 53°33' E 009°48'0 0.0
2018-Jun-15 06:29N 53°33' E 009°48'0 0.0
2018-Jun-15 05:59N 53°33' E 009°48'0 0.0
2018-Jun-15 05:29N 53°33' E 009°48'0 0.0
2018-Jun-15 04:59N 53°33' E 009°48'0 0.0
2018-Jun-15 04:29N 53°33' E 009°48'0 0.0
2018-Jun-15 03:59N 53°33' E 009°48'0 0.0
2018-Jun-15 03:29N 53°33' E 009°48'0 0.0
2018-Jun-15 02:59N 53°33' E 009°48'0 0.0
2018-Jun-15 02:29N 53°33' E 009°48'0 0.0
2018-Jun-15 01:59N 53°33' E 009°48'0 0.0
2018-Jun-15 01:29N 53°33' E 009°48'0 0.0
2018-Jun-15 00:59N 53°33' E 009°48'0 0.0
2018-Jun-15 00:29N 53°33' E 009°48'0 0.0
2018-Jun-14 23:56N 53°33' E 009°48'0 0.0
2018-Jun-14 23:29N 53°33' E 009°48'0 0.0
2018-Jun-14 22:56N 53°33' E 009°48'0 0.0
2018-Jun-14 22:29N 53°33' E 009°48'0 0.0
2018-Jun-14 21:59N 53°33' E 009°48'0 0.0
2018-Jun-14 21:29N 53°33' E 009°48'0 0.0
2018-Jun-14 20:59N 53°33' E 009°48'0 0.0
2018-Jun-14 20:29N 53°33' E 009°48'0 0.0
2018-Jun-14 19:59N 53°33' E 009°48'0 0.0
2018-Jun-14 19:29N 53°33' E 009°48'0 0.0
2018-Jun-14 18:59N 53°33' E 009°48'0 0.0
2018-Jun-14 18:29N 53°33' E 009°48'0 0.0
2018-Jun-14 17:59N 53°33' E 009°48'0 0.0
2018-Jun-14 17:29N 53°33' E 009°48'0 0.0
2018-Jun-14 16:59N 53°33' E 009°48'0 0.0
2018-Jun-14 16:29N 53°33' E 009°48'0 0.0
2018-Jun-14 15:59N 53°33' E 009°48'0 0.0
2018-Jun-14 15:29N 53°33' E 009°48'0 0.0
2018-Jun-14 14:56N 53°33' E 009°48'0 0.0
2018-Jun-14 14:29N 53°33' E 009°48'0 0.0
2018-Jun-14 13:59N 53°33' E 009°48'0 0.0
2018-Jun-14 13:29N 53°33' E 009°48'0 0.0
2018-Jun-14 12:59N 53°33' E 009°48'0 0.0
2018-Jun-14 12:29N 53°33' E 009°48'0 0.0
2018-Jun-14 11:59N 53°33' E 009°48'0 0.0
2018-Jun-14 11:29N 53°33' E 009°48'0 0.0
2018-Jun-14 10:59N 53°33' E 009°48'0 0.0
2018-Jun-14 10:29N 53°33' E 009°48'0 0.0
2018-Jun-14 09:59N 53°33' E 009°48'0 0.0
2018-Jun-14 09:30N 53°33' E 009°48'0 0.0
2018-Jun-14 09:00N 53°33' E 009°48'1 1.2
2018-Jun-14 08:30N 53°33' E 009°47'5 9.2
2018-Jun-14 08:00N 53°34' E 009°40'510.2
2018-Jun-14 07:30N 53°37' E 009°33'5 9.2
2018-Jun-14 07:00N 53°41' E 009°30'5 9.5
2018-Jun-14 06:30N 53°45' E 009°24'5 9.3
2018-Jun-14 06:00N 53°49' E 009°22'5 9.1
2018-Jun-14 05:30N 53°52' E 009°16'4 9.1
2018-Jun-14 05:01N 53°53' E 009°08'2 4.9
2018-Jun-14 04:30N 53°52' E 009°04'4 7.7
2018-Jun-14 04:00N 53°51' E 008°58'4 7.7
2018-Jun-14 03:30N 53°50' E 008°52'4 7.7
2018-Jun-14 03:00N 53°51' E 008°45'4 8.9
2018-Jun-14 02:30N 53°55' E 008°41'4 8.0
2018-Jun-14 01:59N 53°58' E 008°36'6 8.3
2018-Jun-14 01:15N 53°59' E 008°26'2 7.2
2018-Jun-14 01:00N 53°59' E 008°22'16 1.8
2018-Jun-13 16:01N 53°52' E 007°58'0 8.6
2018-Jun-13 16:00N 53°52' E 007°58'4 9.0
2018-Jun-13 15:30N 53°50' E 008°05'5 9.9
2018-Jun-13 15:00N 53°46' E 008°11'510.3
2018-Jun-13 14:30N 53°43' E 008°18'511.1
2018-Jun-13 14:00N 53°39' E 008°24'510.4
2018-Jun-13 13:30N 53°36' E 008°31'5 9.6
2018-Jun-13 13:00N 53°31' E 008°33'5 9.3
2018-Jun-13 12:30N 53°27' E 008°30'4 8.7
2018-Jun-13 12:00N 53°23' E 008°30'4 8.0
2018-Jun-13 11:30N 53°19' E 008°29'4 7.1
2018-Jun-13 11:00N 53°15' E 008°29'1 2.6
2018-Jun-13 10:30N 53°14' E 008°28'0 0.0
2018-Jun-13 10:00N 53°14' E 008°28'0 0.0
2018-Jun-13 09:30N 53°14' E 008°28'0 0.0
2018-Jun-13 09:00N 53°14' E 008°28'0 0.0
2018-Jun-13 08:30N 53°14' E 008°28'0 0.0
2018-Jun-13 08:00N 53°14' E 008°28'0 0.0
2018-Jun-13 07:30N 53°14' E 008°28'0 0.0
2018-Jun-13 07:00N 53°14' E 008°28'0 0.0
2018-Jun-13 06:30N 53°14' E 008°28'0 0.0
2018-Jun-13 06:00N 53°14' E 008°28'0 0.0
2018-Jun-13 05:30N 53°14' E 008°28'0 0.0
2018-Jun-13 05:00N 53°14' E 008°28'0 0.0
2018-Jun-13 04:30N 53°14' E 008°28'0 0.0
2018-Jun-13 04:00N 53°14' E 008°28'0 0.0
2018-Jun-13 03:30N 53°14' E 008°28'0 0.0
2018-Jun-13 03:00N 53°14' E 008°28'0 0.0
2018-Jun-13 02:30N 53°14' E 008°28'0 0.0
2018-Jun-13 02:00N 53°14' E 008°28'0 0.0
2018-Jun-13 01:30N 53°14' E 008°28'0 0.0
2018-Jun-13 01:00N 53°14' E 008°28'0 0.0
2018-Jun-13 00:30N 53°14' E 008°28'0 0.0
2018-Jun-13 00:00N 53°14' E 008°28'0 0.0
2018-Jun-12 23:30N 53°14' E 008°28'0 0.0
2018-Jun-12 23:00N 53°14' E 008°28'0 0.0
2018-Jun-12 22:30N 53°14' E 008°28'0 0.0
2018-Jun-12 22:00N 53°14' E 008°28'0 0.0
2018-Jun-12 21:30N 53°14' E 008°28'0 0.0
2018-Jun-12 21:00N 53°14' E 008°28'0 0.0
2018-Jun-12 20:30N 53°14' E 008°28'0 0.0
2018-Jun-12 20:00N 53°14' E 008°28'0 0.0
2018-Jun-12 19:30N 53°14' E 008°28'0 0.0
2018-Jun-12 19:00N 53°14' E 008°28'0 0.0
2018-Jun-12 18:30N 53°14' E 008°28'0 0.0
2018-Jun-12 18:00N 53°14' E 008°28'0 0.0
2018-Jun-12 17:30N 53°14' E 008°28'0 0.0
2018-Jun-12 17:00N 53°14' E 008°28'0 0.0
2018-Jun-12 16:30N 53°14' E 008°28'0 0.0
2018-Jun-12 16:00N 53°14' E 008°28'0 0.0
2018-Jun-12 15:30N 53°14' E 008°28'0 0.0
2018-Jun-12 15:00N 53°14' E 008°28'0 0.0
2018-Jun-12 14:30N 53°14' E 008°28'0 0.0
2018-Jun-12 14:00N 53°14' E 008°28'0 0.0
2018-Jun-12 13:30N 53°14' E 008°28'0 0.0
2018-Jun-12 13:00N 53°14' E 008°28'0 0.0
2018-Jun-12 12:30N 53°14' E 008°28'0 0.0
2018-Jun-12 12:00N 53°14' E 008°28'0 0.0
2018-Jun-12 11:30N 53°14' E 008°28'0 0.0
2018-Jun-12 11:00N 53°14' E 008°28'0 0.0
2018-Jun-12 10:30N 53°14' E 008°28'0 0.0
2018-Jun-12 10:00N 53°14' E 008°28'0 0.0
2018-Jun-12 09:30N 53°14' E 008°28'0 0.0
2018-Jun-12 09:00N 53°14' E 008°28'3 5.3
2018-Jun-12 08:29N 53°17' E 008°29'3 6.4
2018-Jun-12 08:00N 53°20' E 008°30'3 7.0
2018-Jun-12 07:30N 53°23' E 008°30'4 8.6
2018-Jun-12 07:00N 53°28' E 008°29'3 7.1
2018-Jun-12 06:30N 53°31' E 008°32'2 4.8
2018-Jun-12 06:00N 53°33' E 008°33'4 7.9
2018-Jun-12 05:30N 53°37' E 008°29'4 7.5
2018-Jun-12 05:00N 53°39' E 008°24'4 7.0
2018-Jun-12 04:30N 53°41' E 008°21'4 7.4
2018-Jun-12 04:00N 53°44' E 008°16'4 7.3
2018-Jun-12 03:30N 53°46' E 008°11'3 6.8
2018-Jun-12 03:00N 53°49' E 008°07'3 6.8
2018-Jun-12 02:30N 53°51' E 008°03'4 6.9
2018-Jun-12 01:59N 53°51' E 007°57'4 7.3
2018-Jun-12 01:26N 53°52' E 007°50'85 9.2
2018-Jun-11 16:10N 53°34' E 005°29'210.6
2018-Jun-11 16:00N 53°33' E 005°27'510.8
2018-Jun-11 15:30N 53°32' E 005°18'510.7
2018-Jun-11 15:00N 53°30' E 005°09'612.3
2018-Jun-11 14:31N 53°28' E 004°60'714.0
2018-Jun-11 14:00N 53°25' E 004°49'713.2
2018-Jun-11 13:30N 53°20' E 004°41'1113.5
2018-Jun-11 12:41N 53°10' E 004°32'213.4
2018-Jun-11 12:30N 53°08' E 004°30'612.8
2018-Jun-11 12:00N 53°03' E 004°25'612.2
2018-Jun-11 11:31N 52°58' E 004°20'612.1
2018-Jun-11 11:00N 52°52' E 004°15'1212.1
2018-Jun-11 10:01N 52°42' E 004°04'112.1
2018-Jun-11 09:57N 52°42' E 004°03'511.9
2018-Jun-11 09:30N 52°37' E 003°58'611.7
2018-Jun-11 08:58N 52°33' E 003°51'511.3
2018-Jun-11 08:30N 52°30' E 003°44'611.5
2018-Jun-11 08:00N 52°26' E 003°37'611.7
2018-Jun-11 07:30N 52°22' E 003°30'611.6
2018-Jun-11 07:00N 52°18' E 003°24'611.5
2018-Jun-11 06:30N 52°13' E 003°17'611.4
2018-Jun-11 06:00N 52°09' E 003°11'611.4
2018-Jun-11 05:30N 52°05' E 003°04'611.5
2018-Jun-11 05:01N 52°01' E 002°58'611.7
2018-Jun-11 04:30N 51°57' E 002°51'611.9
2018-Jun-11 04:00N 51°52' E 002°45'612.2
2018-Jun-11 03:30N 51°48' E 002°39'612.5
2018-Jun-11 03:01N 51°43' E 002°32'712.7
2018-Jun-11 02:28N 51°37' E 002°25'612.9
2018-Jun-11 02:00N 51°33' E 002°19'613.0
2018-Jun-11 01:31N 51°28' E 002°12'713.1
2018-Jun-11 01:01N 51°22' E 002°08'713.5
2018-Jun-11 00:30N 51°16' E 002°05'713.3
2018-Jun-11 00:01N 51°12' E 001°57'713.7
2018-Jun-10 23:30N 51°08' E 001°47'714.3
2018-Jun-10 23:00N 51°03' E 001°40'814.5
2018-Jun-10 22:28N 50°57' E 001°31'3612.4
2018-Jun-10 19:34N 50°30' E 000°54'111.3
2018-Jun-10 19:30N 50°30' E 000°53'2811.3
2018-Jun-10 17:02N 50°23' E 000°11'212.2
2018-Jun-10 16:53N 50°22' E 000°08'512.9
2018-Jun-10 16:30N 50°22' E 000°00'613.0
2018-Jun-10 16:00N 50°24' W 000°10'912.6
2018-Jun-10 15:17N 50°28' W 000°22'412.8
2018-Jun-10 15:00N 50°30' W 000°27'1312.7
2018-Jun-10 14:00N 50°33' W 000°46'612.7
2018-Jun-10 13:30N 50°35' W 000°55'611.8
2018-Jun-10 13:00N 50°41' W 000°57'713.0
2018-Jun-10 12:30N 50°45' W 001°05'713.1
2018-Jun-10 12:00N 50°47' W 001°15'4 8.8
2018-Jun-10 11:30N 50°50' W 001°19'4 8.3
2018-Jun-10 11:00N 50°54' W 001°23'0 0.0
2018-Jun-10 10:30N 50°54' W 001°23'0 0.0
2018-Jun-10 10:00N 50°54' W 001°23'0 0.0
2018-Jun-10 09:30N 50°54' W 001°23'0 0.0
2018-Jun-10 09:00N 50°54' W 001°23'0 0.0
2018-Jun-10 08:30N 50°54' W 001°23'0 0.0
2018-Jun-10 08:00N 50°54' W 001°23'0 0.0
2018-Jun-10 07:29N 50°54' W 001°23'0 0.0
2018-Jun-10 06:59N 50°54' W 001°23'0 0.0
2018-Jun-10 06:26N 50°54' W 001°23'0 0.0
2018-Jun-10 05:59N 50°54' W 001°23'0 0.0
2018-Jun-10 05:29N 50°54' W 001°23'0 0.0
2018-Jun-10 04:59N 50°54' W 001°23'0 0.0
2018-Jun-10 04:29N 50°54' W 001°23'0 0.0
2018-Jun-10 03:59N 50°54' W 001°23'0 0.0
2018-Jun-10 03:29N 50°54' W 001°23'0 0.0
2018-Jun-10 02:59N 50°54' W 001°23'0 0.0
2018-Jun-10 02:29N 50°54' W 001°23'0 0.0
2018-Jun-10 01:59N 50°54' W 001°23'0 0.0
2018-Jun-10 01:29N 50°54' W 001°23'0 0.0
2018-Jun-10 00:59N 50°54' W 001°23'0 0.0
2018-Jun-10 00:29N 50°54' W 001°23'0 0.0
2018-Jun-09 23:59N 50°54' W 001°23'0 0.0
2018-Jun-09 23:29N 50°54' W 001°23'0 0.0
2018-Jun-09 22:59N 50°54' W 001°23'0 0.0
2018-Jun-09 22:29N 50°54' W 001°23'0 0.0
2018-Jun-09 21:59N 50°54' W 001°23'0 0.0
2018-Jun-09 21:29N 50°54' W 001°23'0 0.0
2018-Jun-09 20:59N 50°54' W 001°23'0 0.0
2018-Jun-09 20:29N 50°54' W 001°23'0 0.0
2018-Jun-09 19:59N 50°54' W 001°23'0 0.0
2018-Jun-09 19:29N 50°54' W 001°23'0 0.0
2018-Jun-09 18:59N 50°54' W 001°23'0 0.0
2018-Jun-09 18:29N 50°54' W 001°23'0 0.0
2018-Jun-09 17:59N 50°54' W 001°23'0 0.0
2018-Jun-09 17:26N 50°54' W 001°23'0 0.0
2018-Jun-09 16:59N 50°54' W 001°23'0 0.0
2018-Jun-09 16:29N 50°54' W 001°23'0 0.0
2018-Jun-09 15:59N 50°54' W 001°23'0 0.0
2018-Jun-09 14:59N 50°54' W 001°23'0 0.0
2018-Jun-09 14:29N 50°54' W 001°23'0 0.0
2018-Jun-09 13:59N 50°54' W 001°23'0 0.0
2018-Jun-09 13:29N 50°54' W 001°23'0 0.0
2018-Jun-09 12:56N 50°54' W 001°23'0 0.0
2018-Jun-09 12:29N 50°54' W 001°23'0 0.0
2018-Jun-09 11:59N 50°54' W 001°23'0 0.0
2018-Jun-09 11:29N 50°54' W 001°23'0 0.0
2018-Jun-09 11:00N 50°54' W 001°23'0 0.0
2018-Jun-09 10:30N 50°54' W 001°23'0 0.0
2018-Jun-09 10:00N 50°54' W 001°23'0 0.0
2018-Jun-09 09:30N 50°54' W 001°23'0 0.0
2018-Jun-09 09:00N 50°54' W 001°23'0 0.0
2018-Jun-09 08:30N 50°54' W 001°23'0 0.6
2018-Jun-09 08:00N 50°53' W 001°24'0 0.0
2018-Jun-09 07:30N 50°53' W 001°23'0 0.0
2018-Jun-09 07:00N 50°53' W 001°23'0 0.0
2018-Jun-09 06:30N 50°53' W 001°23'0 0.0
2018-Jun-09 06:00N 50°53' W 001°23'0 0.5
2018-Jun-09 05:29N 50°54' W 001°23'0 0.2
2018-Jun-09 05:00N 50°54' W 001°23'0 0.0
2018-Jun-09 04:30N 50°54' W 001°23'0 0.0
2018-Jun-09 04:00N 50°54' W 001°23'0 0.0
2018-Jun-09 03:30N 50°54' W 001°23'0 0.0
2018-Jun-09 03:00N 50°54' W 001°23'0 0.0
2018-Jun-09 02:30N 50°54' W 001°23'0 0.0
2018-Jun-09 02:00N 50°54' W 001°23'0 0.0
2018-Jun-09 01:30N 50°54' W 001°23'0 0.0
2018-Jun-09 01:00N 50°54' W 001°23'0 0.0
2018-Jun-09 00:30N 50°54' W 001°23'0 0.0
2018-Jun-09 00:00N 50°54' W 001°23'0 0.0
2018-Jun-08 23:30N 50°54' W 001°23'0 0.0
2018-Jun-08 23:00N 50°54' W 001°23'0 0.0
2018-Jun-08 22:30N 50°54' W 001°23'0 0.0
2018-Jun-08 21:54N 50°54' W 001°23'0 0.0
2018-Jun-08 21:30N 50°54' W 001°23'0 0.0
2018-Jun-08 20:54N 50°54' W 001°23'0 0.0
2018-Jun-08 20:30N 50°54' W 001°23'0 0.0
2018-Jun-08 20:00N 50°54' W 001°23'0 0.0
2018-Jun-08 19:30N 50°54' W 001°23'0 0.0
2018-Jun-08 19:00N 50°54' W 001°23'0 0.0
2018-Jun-08 18:30N 50°54' W 001°23'0 0.0
2018-Jun-08 17:57N 50°54' W 001°23'0 0.0
2018-Jun-08 17:30N 50°54' W 001°23'0 0.0
2018-Jun-08 17:00N 50°54' W 001°23'0 0.0
2018-Jun-08 16:30N 50°54' W 001°23'0 0.0
2018-Jun-08 16:00N 50°54' W 001°23'0 0.0
2018-Jun-08 15:30N 50°54' W 001°23'0 0.0
2018-Jun-08 15:00N 50°54' W 001°23'0 0.0
2018-Jun-08 14:30N 50°54' W 001°23'0 0.0
2018-Jun-08 14:00N 50°54' W 001°23'0 0.0
2018-Jun-08 13:30N 50°54' W 001°23'0 0.0
2018-Jun-08 13:00N 50°54' W 001°23'0 0.0
2018-Jun-08 12:30N 50°54' W 001°23'0 0.0
2018-Jun-08 12:00N 50°54' W 001°23'0 0.0
2018-Jun-08 11:30N 50°54' W 001°23'0 0.0
2018-Jun-08 11:00N 50°54' W 001°23'0 0.0
2018-Jun-08 10:30N 50°54' W 001°23'0 0.0
2018-Jun-08 09:57N 50°54' W 001°23'0 0.0
2018-Jun-08 09:30N 50°54' W 001°23'0 0.0
2018-Jun-08 09:00N 50°54' W 001°23'0 0.0
2018-Jun-08 08:30N 50°54' W 001°23'0 0.0
2018-Jun-08 08:00N 50°54' W 001°23'0 0.0
2018-Jun-08 07:30N 50°54' W 001°23'0 0.0
2018-Jun-08 07:00N 50°54' W 001°23'0 0.0
2018-Jun-08 06:30N 50°54' W 001°23'0 0.0
2018-Jun-08 06:00N 50°54' W 001°23'0 0.0
2018-Jun-08 05:30N 50°54' W 001°23'0 0.0
2018-Jun-08 05:00N 50°54' W 001°23'0 0.0
2018-Jun-08 04:27N 50°54' W 001°23'0 0.0
2018-Jun-08 04:00N 50°54' W 001°23'0 0.0
2018-Jun-08 03:30N 50°54' W 001°23'  
Track history (hours):
 
Tides and Currents Weather Stations Pressure Air Temp Water Temp Dewpoint Dewpoint Depression Visibility Wind Speed Wind Dir Waves Ship Positions

Pink Gin

Last reported at 2018-Jun-18 03:26 UTC. Time now 2018-Jun-18 03:33 UTC.
Position N 54°27' E 012°02'.

Length 55 m; draft 7 m.

Type: Pleasure craft. MMSI: 232007762.

Date/timePositionNaut miles runAvg speedWind from/ knotsBaromVisibWave heightAir tempDewpointWater temp
2018-Jun-18 03:26N 54°27' E 012°02'42 7.5
2018-Jun-17 21:52N 55°02' E 012°41'3 8.8
2018-Jun-17 21:31N 55°05' E 012°40'5 9.1
2018-Jun-17 21:00N 55°10' E 012°39'510.0
2018-Jun-17 20:30N 55°15' E 012°38'510.0
2018-Jun-17 20:00N 55°20' E 012°38'5 9.9
2018-Jun-17 19:30N 55°25' E 012°39'5 9.8
2018-Jun-17 19:00N 55°29' E 012°41'5 9.6
2018-Jun-17 18:31N 55°34' E 012°42'510.0
2018-Jun-17 18:00N 55°39' E 012°42'510.4
2018-Jun-17 17:31N 55°44' E 012°41'5 9.8
2018-Jun-17 17:00N 55°49' E 012°41'510.3
2018-Jun-17 16:30N 55°54' E 012°38'510.0
2018-Jun-17 16:01N 55°59' E 012°38'4 8.9
2018-Jun-17 15:31N 56°04' E 012°38'80 7.7
2018-Jun-17 05:03N 57°15' E 011°33'1 9.4
2018-Jun-17 04:57N 57°16' E 011°32'4 9.5
2018-Jun-17 04:30N 57°20' E 011°29'5 9.1
2018-Jun-17 04:00N 57°24' E 011°27'510.1
2018-Jun-17 03:30N 57°29' E 011°23'4 8.9
2018-Jun-17 03:00N 57°33' E 011°20'4 8.6
2018-Jun-17 02:30N 57°37' E 011°17'4 8.5
2018-Jun-17 02:00N 57°41' E 011°15'4 8.4
2018-Jun-17 01:30N 57°46' E 011°14'5 9.0
2018-Jun-17 00:56N 57°50' E 011°09'185 9.1
2018-Jun-16 04:35N 55°58' E 006°40'212.2
2018-Jun-16 04:27N 55°56' E 006°40'612.1
2018-Jun-16 03:59N 55°50' E 006°40'10211.3
2018-Jun-15 19:01N 54°14' E 007°33'012.2
2018-Jun-15 19:00N 54°13' E 007°33'712.4
2018-Jun-15 18:26N 54°09' E 007°43'912.9
2018-Jun-15 17:46N 54°05' E 007°56'513.2
2018-Jun-15 17:23N 54°02' E 008°03'913.9
2018-Jun-15 16:43N 54°01' E 008°18'414.3
2018-Jun-15 16:28N 53°60' E 008°24'815.2
2018-Jun-15 15:57N 53°58' E 008°37'614.7
2018-Jun-15 15:30N 53°52' E 008°44'612.3
2018-Jun-15 15:00N 53°51' E 008°54'511.2
2018-Jun-15 14:30N 53°52' E 009°03'510.3
2018-Jun-15 14:00N 53°53' E 009°11'5 9.7
2018-Jun-15 13:30N 53°51' E 009°19'5 9.5
2018-Jun-15 13:00N 53°47' E 009°23'5 9.2
2018-Jun-15 12:30N 53°43' E 009°28'5 9.0
2018-Jun-15 12:00N 53°39' E 009°31'4 8.9
2018-Jun-15 11:30N 53°36' E 009°36'5 9.4
2018-Jun-15 11:00N 53°34' E 009°43'3 6.3
2018-Jun-15 10:29N 53°33' E 009°48'0 0.0
2018-Jun-15 09:59N 53°33' E 009°48'0 0.0
2018-Jun-15 09:29N 53°33' E 009°48'0 0.0
2018-Jun-15 08:59N 53°33' E 009°48'0 0.0
2018-Jun-15 08:29N 53°33' E 009°48'0 0.0
2018-Jun-15 07:59N 53°33' E 009°48'0 0.0
2018-Jun-15 07:29N 53°33' E 009°48'0 0.0
2018-Jun-15 06:59N 53°33' E 009°48'0 0.0
2018-Jun-15 06:29N 53°33' E 009°48'0 0.0
2018-Jun-15 05:59N 53°33' E 009°48'0 0.0
2018-Jun-15 05:29N 53°33' E 009°48'0 0.0
2018-Jun-15 04:59N 53°33' E 009°48'0 0.0
2018-Jun-15 04:29N 53°33' E 009°48'0 0.0
2018-Jun-15 03:59N 53°33' E 009°48'0 0.0
2018-Jun-15 03:29N 53°33' E 009°48'0 0.0
2018-Jun-15 02:59N 53°33' E 009°48'0 0.0
2018-Jun-15 02:29N 53°33' E 009°48'0 0.0
2018-Jun-15 01:59N 53°33' E 009°48'0 0.0
2018-Jun-15 01:29N 53°33' E 009°48'0 0.0
2018-Jun-15 00:59N 53°33' E 009°48'0 0.0
2018-Jun-15 00:29N 53°33' E 009°48'0 0.0
2018-Jun-14 23:56N 53°33' E 009°48'0 0.0
2018-Jun-14 23:29N 53°33' E 009°48'0 0.0
2018-Jun-14 22:56N 53°33' E 009°48'0 0.0
2018-Jun-14 22:29N 53°33' E 009°48'0 0.0
2018-Jun-14 21:59N 53°33' E 009°48'0 0.0
2018-Jun-14 21:29N 53°33' E 009°48'0 0.0
2018-Jun-14 20:59N 53°33' E 009°48'0 0.0
2018-Jun-14 20:29N 53°33' E 009°48'0 0.0
2018-Jun-14 19:59N 53°33' E 009°48'0 0.0
2018-Jun-14 19:29N 53°33' E 009°48'0 0.0
2018-Jun-14 18:59N 53°33' E 009°48'0 0.0
2018-Jun-14 18:29N 53°33' E 009°48'0 0.0
2018-Jun-14 17:59N 53°33' E 009°48'0 0.0
2018-Jun-14 17:29N 53°33' E 009°48'0 0.0
2018-Jun-14 16:59N 53°33' E 009°48'0 0.0
2018-Jun-14 16:29N 53°33' E 009°48'0 0.0
2018-Jun-14 15:59N 53°33' E 009°48'0 0.0
2018-Jun-14 15:29N 53°33' E 009°48'0 0.0
2018-Jun-14 14:56N 53°33' E 009°48'0 0.0
2018-Jun-14 14:29N 53°33' E 009°48'0 0.0
2018-Jun-14 13:59N 53°33' E 009°48'0 0.0
2018-Jun-14 13:29N 53°33' E 009°48'0 0.0
2018-Jun-14 12:59N 53°33' E 009°48'0 0.0
2018-Jun-14 12:29N 53°33' E 009°48'0 0.0
2018-Jun-14 11:59N 53°33' E 009°48'0 0.0
2018-Jun-14 11:29N 53°33' E 009°48'0 0.0
2018-Jun-14 10:59N 53°33' E 009°48'0 0.0
2018-Jun-14 10:29N 53°33' E 009°48'0 0.0
2018-Jun-14 09:59N 53°33' E 009°48'0 0.0
2018-Jun-14 09:30N 53°33' E 009°48'0 0.0
2018-Jun-14 09:00N 53°33' E 009°48'1 1.2
2018-Jun-14 08:30N 53°33' E 009°47'5 9.2
2018-Jun-14 08:00N 53°34' E 009°40'510.2
2018-Jun-14 07:30N 53°37' E 009°33'5 9.2
2018-Jun-14 07:00N 53°41' E 009°30'5 9.5
2018-Jun-14 06:30N 53°45' E 009°24'5 9.3
2018-Jun-14 06:00N 53°49' E 009°22'5 9.1
2018-Jun-14 05:30N 53°52' E 009°16'4 9.1
2018-Jun-14 05:01N 53°53' E 009°08'2 4.9
2018-Jun-14 04:30N 53°52' E 009°04'4 7.7
2018-Jun-14 04:00N 53°51' E 008°58'4 7.7
2018-Jun-14 03:30N 53°50' E 008°52'4 7.7
2018-Jun-14 03:00N 53°51' E 008°45'4 8.9
2018-Jun-14 02:30N 53°55' E 008°41'4 8.0
2018-Jun-14 01:59N 53°58' E 008°36'6 8.3
2018-Jun-14 01:15N 53°59' E 008°26'2 7.2
2018-Jun-14 01:00N 53°59' E 008°22'16 1.8
2018-Jun-13 16:01N 53°52' E 007°58'0 8.6
2018-Jun-13 16:00N 53°52' E 007°58'4 9.0
2018-Jun-13 15:30N 53°50' E 008°05'5 9.9
2018-Jun-13 15:00N 53°46' E 008°11'510.3
2018-Jun-13 14:30N 53°43' E 008°18'511.1
2018-Jun-13 14:00N 53°39' E 008°24'510.4
2018-Jun-13 13:30N 53°36' E 008°31'5 9.6
2018-Jun-13 13:00N 53°31' E 008°33'5 9.3
2018-Jun-13 12:30N 53°27' E 008°30'4 8.7
2018-Jun-13 12:00N 53°23' E 008°30'4 8.0
2018-Jun-13 11:30N 53°19' E 008°29'4 7.1
2018-Jun-13 11:00N 53°15' E 008°29'1 2.6
2018-Jun-13 10:30N 53°14' E 008°28'0 0.0
2018-Jun-13 10:00N 53°14' E 008°28'0 0.0
2018-Jun-13 09:30N 53°14' E 008°28'0 0.0
2018-Jun-13 09:00N 53°14' E 008°28'0 0.0
2018-Jun-13 08:30N 53°14' E 008°28'0 0.0
2018-Jun-13 08:00N 53°14' E 008°28'0 0.0
2018-Jun-13 07:30N 53°14' E 008°28'0 0.0
2018-Jun-13 07:00N 53°14' E 008°28'0 0.0
2018-Jun-13 06:30N 53°14' E 008°28'0 0.0
2018-Jun-13 06:00N 53°14' E 008°28'0 0.0
2018-Jun-13 05:30N 53°14' E 008°28'0 0.0
2018-Jun-13 05:00N 53°14' E 008°28'0 0.0
2018-Jun-13 04:30N 53°14' E 008°28'0 0.0
2018-Jun-13 04:00N 53°14' E 008°28'0 0.0
2018-Jun-13 03:30N 53°14' E 008°28'0 0.0
2018-Jun-13 03:00N 53°14' E 008°28'0 0.0
2018-Jun-13 02:30N 53°14' E 008°28'0 0.0
2018-Jun-13 02:00N 53°14' E 008°28'0 0.0
2018-Jun-13 01:30N 53°14' E 008°28'0 0.0
2018-Jun-13 01:00N 53°14' E 008°28'0 0.0
2018-Jun-13 00:30N 53°14' E 008°28'0 0.0
2018-Jun-13 00:00N 53°14' E 008°28'0 0.0
2018-Jun-12 23:30N 53°14' E 008°28'0 0.0
2018-Jun-12 23:00N 53°14' E 008°28'0 0.0
2018-Jun-12 22:30N 53°14' E 008°28'0 0.0
2018-Jun-12 22:00N 53°14' E 008°28'0 0.0
2018-Jun-12 21:30N 53°14' E 008°28'0 0.0
2018-Jun-12 21:00N 53°14' E 008°28'0 0.0
2018-Jun-12 20:30N 53°14' E 008°28'0 0.0
2018-Jun-12 20:00N 53°14' E 008°28'0 0.0
2018-Jun-12 19:30N 53°14' E 008°28'0 0.0
2018-Jun-12 19:00N 53°14' E 008°28'0 0.0
2018-Jun-12 18:30N 53°14' E 008°28'0 0.0
2018-Jun-12 18:00N 53°14' E 008°28'0 0.0
2018-Jun-12 17:30N 53°14' E 008°28'0 0.0
2018-Jun-12 17:00N 53°14' E 008°28'0 0.0
2018-Jun-12 16:30N 53°14' E 008°28'0 0.0
2018-Jun-12 16:00N 53°14' E 008°28'0 0.0
2018-Jun-12 15:30N 53°14' E 008°28'0 0.0
2018-Jun-12 15:00N 53°14' E 008°28'0 0.0
2018-Jun-12 14:30N 53°14' E 008°28'0 0.0
2018-Jun-12 14:00N 53°14' E 008°28'0 0.0
2018-Jun-12 13:30N 53°14' E 008°28'0 0.0
2018-Jun-12 13:00N 53°14' E 008°28'0 0.0
2018-Jun-12 12:30N 53°14' E 008°28'0 0.0
2018-Jun-12 12:00N 53°14' E 008°28'0 0.0
2018-Jun-12 11:30N 53°14' E 008°28'0 0.0
2018-Jun-12 11:00N 53°14' E 008°28'0 0.0
2018-Jun-12 10:30N 53°14' E 008°28'0 0.0
2018-Jun-12 10:00N 53°14' E 008°28'0 0.0
2018-Jun-12 09:30N 53°14' E 008°28'0 0.0
2018-Jun-12 09:00N 53°14' E 008°28'3 5.3
2018-Jun-12 08:29N 53°17' E 008°29'3 6.4
2018-Jun-12 08:00N 53°20' E 008°30'3 7.0
2018-Jun-12 07:30N 53°23' E 008°30'4 8.6
2018-Jun-12 07:00N 53°28' E 008°29'3 7.1
2018-Jun-12 06:30N 53°31' E 008°32'2 4.8
2018-Jun-12 06:00N 53°33' E 008°33'4 7.9
2018-Jun-12 05:30N 53°37' E 008°29'4 7.5
2018-Jun-12 05:00N 53°39' E 008°24'4 7.0
2018-Jun-12 04:30N 53°41' E 008°21'4 7.4
2018-Jun-12 04:00N 53°44' E 008°16'4 7.3
2018-Jun-12 03:30N 53°46' E 008°11'3 6.8
2018-Jun-12 03:00N 53°49' E 008°07'3 6.8
2018-Jun-12 02:30N 53°51' E 008°03'4 6.9
2018-Jun-12 01:59N 53°51' E 007°57'4 7.3
2018-Jun-12 01:26N 53°52' E 007°50'85 9.2
2018-Jun-11 16:10N 53°34' E 005°29'210.6
2018-Jun-11 16:00N 53°33' E 005°27'510.8
2018-Jun-11 15:30N 53°32' E 005°18'510.7
2018-Jun-11 15:00N 53°30' E 005°09'612.3
2018-Jun-11 14:31N 53°28' E 004°60'714.0
2018-Jun-11 14:00N 53°25' E 004°49'713.2
2018-Jun-11 13:30N 53°20' E 004°41'1113.5
2018-Jun-11 12:41N 53°10' E 004°32'213.4
2018-Jun-11 12:30N 53°08' E 004°30'612.8
2018-Jun-11 12:00N 53°03' E 004°25'612.2
2018-Jun-11 11:31N 52°58' E 004°20'612.1
2018-Jun-11 11:00N 52°52' E 004°15'1212.1
2018-Jun-11 10:01N 52°42' E 004°04'112.1
2018-Jun-11 09:57N 52°42' E 004°03'511.9
2018-Jun-11 09:30N 52°37' E 003°58'611.7
2018-Jun-11 08:58N 52°33' E 003°51'511.3
2018-Jun-11 08:30N 52°30' E 003°44'611.5
2018-Jun-11 08:00N 52°26' E 003°37'611.7
2018-Jun-11 07:30N 52°22' E 003°30'611.6
2018-Jun-11 07:00N 52°18' E 003°24'611.5
2018-Jun-11 06:30N 52°13' E 003°17'611.4
2018-Jun-11 06:00N 52°09' E 003°11'611.4
2018-Jun-11 05:30N 52°05' E 003°04'611.5
2018-Jun-11 05:01N 52°01' E 002°58'611.7
2018-Jun-11 04:30N 51°57' E 002°51'611.9
2018-Jun-11 04:00N 51°52' E 002°45'612.2
2018-Jun-11 03:30N 51°48' E 002°39'612.5
2018-Jun-11 03:01N 51°43' E 002°32'712.7
2018-Jun-11 02:28N 51°37' E 002°25'612.9
2018-Jun-11 02:00N 51°33' E 002°19'613.0
2018-Jun-11 01:31N 51°28' E 002°12'713.1
2018-Jun-11 01:01N 51°22' E 002°08'713.5
2018-Jun-11 00:30N 51°16' E 002°05'713.3
2018-Jun-11 00:01N 51°12' E 001°57'713.7
2018-Jun-10 23:30N 51°08' E 001°47'714.3
2018-Jun-10 23:00N 51°03' E 001°40'814.5
2018-Jun-10 22:28N 50°57' E 001°31'3612.4
2018-Jun-10 19:34N 50°30' E 000°54'111.3
2018-Jun-10 19:30N 50°30' E 000°53'2811.3
2018-Jun-10 17:02N 50°23' E 000°11'212.2
2018-Jun-10 16:53N 50°22' E 000°08'512.9
2018-Jun-10 16:30N 50°22' E 000°00'613.0
2018-Jun-10 16:00N 50°24' W 000°10'912.6
2018-Jun-10 15:17N 50°28' W 000°22'412.8
2018-Jun-10 15:00N 50°30' W 000°27'1312.7
2018-Jun-10 14:00N 50°33' W 000°46'612.7
2018-Jun-10 13:30N 50°35' W 000°55'611.8
2018-Jun-10 13:00N 50°41' W 000°57'713.0
2018-Jun-10 12:30N 50°45' W 001°05'713.1
2018-Jun-10 12:00N 50°47' W 001°15'4 8.8
2018-Jun-10 11:30N 50°50' W 001°19'4 8.3
2018-Jun-10 11:00N 50°54' W 001°23'0 0.0
2018-Jun-10 10:30N 50°54' W 001°23'0 0.0
2018-Jun-10 10:00N 50°54' W 001°23'0 0.0
2018-Jun-10 09:30N 50°54' W 001°23'0 0.0
2018-Jun-10 09:00N 50°54' W 001°23'0 0.0
2018-Jun-10 08:30N 50°54' W 001°23'0 0.0
2018-Jun-10 08:00N 50°54' W 001°23'0 0.0
2018-Jun-10 07:29N 50°54' W 001°23'0 0.0
2018-Jun-10 06:59N 50°54' W 001°23'0 0.0
2018-Jun-10 06:26N 50°54' W 001°23'0 0.0
2018-Jun-10 05:59N 50°54' W 001°23'0 0.0
2018-Jun-10 05:29N 50°54' W 001°23'0 0.0
2018-Jun-10 04:59N 50°54' W 001°23'0 0.0
2018-Jun-10 04:29N 50°54' W 001°23'0 0.0
2018-Jun-10 03:59N 50°54' W 001°23'0 0.0
2018-Jun-10 03:29N 50°54' W 001°23'0 0.0
2018-Jun-10 02:59N 50°54' W 001°23'0 0.0
2018-Jun-10 02:29N 50°54' W 001°23'0 0.0
2018-Jun-10 01:59N 50°54' W 001°23'0 0.0
2018-Jun-10 01:29N 50°54' W 001°23'0 0.0
2018-Jun-10 00:59N 50°54' W 001°23'0 0.0
2018-Jun-10 00:29N 50°54' W 001°23'0 0.0
2018-Jun-09 23:59N 50°54' W 001°23'0 0.0
2018-Jun-09 23:29N 50°54' W 001°23'0 0.0
2018-Jun-09 22:59N 50°54' W 001°23'0 0.0
2018-Jun-09 22:29N 50°54' W 001°23'0 0.0
2018-Jun-09 21:59N 50°54' W 001°23'0 0.0
2018-Jun-09 21:29N 50°54' W 001°23'0 0.0
2018-Jun-09 20:59N 50°54' W 001°23'0 0.0
2018-Jun-09 20:29N 50°54' W 001°23'0 0.0
2018-Jun-09 19:59N 50°54' W 001°23'0 0.0
2018-Jun-09 19:29N 50°54' W 001°23'0 0.0
2018-Jun-09 18:59N 50°54' W 001°23'0 0.0
2018-Jun-09 18:29N 50°54' W 001°23'0 0.0
2018-Jun-09 17:59N 50°54' W 001°23'0 0.0
2018-Jun-09 17:26N 50°54' W 001°23'0 0.0
2018-Jun-09 16:59N 50°54' W 001°23'0 0.0
2018-Jun-09 16:29N 50°54' W 001°23'0 0.0
2018-Jun-09 15:59N 50°54' W 001°23'0 0.0
2018-Jun-09 14:59N 50°54' W 001°23'0 0.0
2018-Jun-09 14:29N 50°54' W 001°23'0 0.0
2018-Jun-09 13:59N 50°54' W 001°23'0 0.0
2018-Jun-09 13:29N 50°54' W 001°23'0 0.0
2018-Jun-09 12:56N 50°54' W 001°23'0 0.0
2018-Jun-09 12:29N 50°54' W 001°23'0 0.0
2018-Jun-09 11:59N 50°54' W 001°23'0 0.0
2018-Jun-09 11:29N 50°54' W 001°23'0 0.0
2018-Jun-09 11:00N 50°54' W 001°23'0 0.0
2018-Jun-09 10:30N 50°54' W 001°23'0 0.0
2018-Jun-09 10:00N 50°54' W 001°23'0 0.0
2018-Jun-09 09:30N 50°54' W 001°23'0 0.0
2018-Jun-09 09:00N 50°54' W 001°23'0 0.0
2018-Jun-09 08:30N 50°54' W 001°23'0 0.6
2018-Jun-09 08:00N 50°53' W 001°24'0 0.0
2018-Jun-09 07:30N 50°53' W 001°23'0 0.0
2018-Jun-09 07:00N 50°53' W 001°23'0 0.0
2018-Jun-09 06:30N 50°53' W 001°23'0 0.0
2018-Jun-09 06:00N 50°53' W 001°23'0 0.5
2018-Jun-09 05:29N 50°54' W 001°23'0 0.2
2018-Jun-09 05:00N 50°54' W 001°23'0 0.0
2018-Jun-09 04:30N 50°54' W 001°23'0 0.0
2018-Jun-09 04:00N 50°54' W 001°23'0 0.0
2018-Jun-09 03:30N 50°54' W 001°23'0 0.0
2018-Jun-09 03:00N 50°54' W 001°23'0 0.0
2018-Jun-09 02:30N 50°54' W 001°23'0 0.0
2018-Jun-09 02:00N 50°54' W 001°23'0 0.0
2018-Jun-09 01:30N 50°54' W 001°23'0 0.0
2018-Jun-09 01:00N 50°54' W 001°23'0 0.0
2018-Jun-09 00:30N 50°54' W 001°23'0 0.0
2018-Jun-09 00:00N 50°54' W 001°23'0 0.0
2018-Jun-08 23:30N 50°54' W 001°23'0 0.0
2018-Jun-08 23:00N 50°54' W 001°23'0 0.0
2018-Jun-08 22:30N 50°54' W 001°23'0 0.0
2018-Jun-08 21:54N 50°54' W 001°23'0 0.0
2018-Jun-08 21:30N 50°54' W 001°23'0 0.0
2018-Jun-08 20:54N 50°54' W 001°23'0 0.0
2018-Jun-08 20:30N 50°54' W 001°23'0 0.0
2018-Jun-08 20:00N 50°54' W 001°23'0 0.0
2018-Jun-08 19:30N 50°54' W 001°23'0 0.0
2018-Jun-08 19:00N 50°54' W 001°23'0 0.0
2018-Jun-08 18:30N 50°54' W 001°23'0 0.0
2018-Jun-08 17:57N 50°54' W 001°23'0 0.0
2018-Jun-08 17:30N 50°54' W 001°23'0 0.0
2018-Jun-08 17:00N 50°54' W 001°23'0 0.0
2018-Jun-08 16:30N 50°54' W 001°23'0 0.0
2018-Jun-08 16:00N 50°54' W 001°23'0 0.0
2018-Jun-08 15:30N 50°54' W 001°23'0 0.0
2018-Jun-08 15:00N 50°54' W 001°23'0 0.0
2018-Jun-08 14:30N 50°54' W 001°23'0 0.0
2018-Jun-08 14:00N 50°54' W 001°23'0 0.0
2018-Jun-08 13:30N 50°54' W 001°23'0 0.0
2018-Jun-08 13:00N 50°54' W 001°23'0 0.0
2018-Jun-08 12:30N 50°54' W 001°23'0 0.0
2018-Jun-08 12:00N 50°54' W 001°23'0 0.0
2018-Jun-08 11:30N 50°54' W 001°23'0 0.0
2018-Jun-08 11:00N 50°54' W 001°23'0 0.0
2018-Jun-08 10:30N 50°54' W 001°23'0 0.0
2018-Jun-08 09:57N 50°54' W 001°23'0 0.0
2018-Jun-08 09:30N 50°54' W 001°23'0 0.0
2018-Jun-08 09:00N 50°54' W 001°23'0 0.0
2018-Jun-08 08:30N 50°54' W 001°23'0 0.0
2018-Jun-08 08:00N 50°54' W 001°23'0 0.0
2018-Jun-08 07:30N 50°54' W 001°23'0 0.0
2018-Jun-08 07:00N 50°54' W 001°23'0 0.0
2018-Jun-08 06:30N 50°54' W 001°23'0 0.0
2018-Jun-08 06:00N 50°54' W 001°23'0 0.0
2018-Jun-08 05:30N 50°54' W 001°23'0 0.0
2018-Jun-08 05:00N 50°54' W 001°23'0 0.0
2018-Jun-08 04:27N 50°54' W 001°23'0 0.0
2018-Jun-08 04:00N 50°54' W 001°23'0 0.0
2018-Jun-08 03:30N 50°54' W 001°23'  

Dump ship's entire track history